createdAt,value
2022-12-17T00:00:50.981Z,66.32
2022-12-17T00:03:37.762Z,58.15
2022-12-17T00:06:23.730Z,64.88
2022-12-17T00:09:09.213Z,58.60
2022-12-17T00:11:54.634Z,61.40
2022-12-17T00:14:41.846Z,60.50
2022-12-17T00:17:27.256Z,61.90
2022-12-17T00:20:12.574Z,62.47
2022-12-17T00:22:58.174Z,52.55
2022-12-17T00:25:44.668Z,60.55
2022-12-17T00:28:31.150Z,61.50
2022-12-17T00:31:16.778Z,62.15
2022-12-17T00:34:02.235Z,55.05
2022-12-17T00:36:47.700Z,53.08
2022-12-17T00:39:33.060Z,50.63
2022-12-17T00:42:18.594Z,48.53
2022-12-17T00:45:04.287Z,55.15
2022-12-17T00:47:49.813Z,50.65
2022-12-17T00:50:35.834Z,52.70
2022-12-17T00:53:21.473Z,56.05
2022-12-17T00:56:07.111Z,51.13
2022-12-17T00:58:52.798Z,44.63
2022-12-17T01:01:38.334Z,46.83
2022-12-17T01:04:23.796Z,52.97
2022-12-17T01:07:09.268Z,42.28
2022-12-17T01:09:55.199Z,45.17
2022-12-17T01:12:41.472Z,46.70
2022-12-17T01:15:27.007Z,48.50
2022-12-17T01:18:12.543Z,43.45
2022-12-17T01:20:57.860Z,39.45
2022-12-17T01:23:43.284Z,44.47
2022-12-17T01:26:28.700Z,47.03
2022-12-17T01:29:16.040Z,38.05
2022-12-17T01:32:01.499Z,36.88
2022-12-17T01:34:46.897Z,35.78
2022-12-17T01:37:32.310Z,36.25
2022-12-17T01:40:18.001Z,40.92
2022-12-17T01:43:04.776Z,38.35
2022-12-17T01:46:08.539Z,42.05
2022-12-17T01:48:59.230Z,43.23
2022-12-17T01:51:44.767Z,40.03
2022-12-17T01:54:30.749Z,41.40
2022-12-17T01:57:16.479Z,43.53
2022-12-17T02:00:23.052Z,44.85
2022-12-17T02:03:08.695Z,38.75
2022-12-17T02:06:02.331Z,45.30
2022-12-17T02:09:15.736Z,40.20
2022-12-17T02:12:13.854Z,32.03
2022-12-17T02:15:05.653Z,36.75
2022-12-17T02:18:04.212Z,44.38
2022-12-17T02:20:53.775Z,39.58
2022-12-17T02:24:01.877Z,40.65
2022-12-17T02:27:01.867Z,38.67
2022-12-17T02:29:50.647Z,38.75
2022-12-17T02:32:36.333Z,41.13
2022-12-17T02:35:23.390Z,43.63
2022-12-17T02:38:09.213Z,40.05
2022-12-17T02:40:57.595Z,48.28
2022-12-17T02:43:44.623Z,42.40
2022-12-17T02:46:30.187Z,41.22
2022-12-17T02:49:15.604Z,49.00
2022-12-17T02:52:01.783Z,38.38
2022-12-17T02:54:50.989Z,43.88
2022-12-17T02:57:39.984Z,39.50
2022-12-17T03:00:30.070Z,44.58
2022-12-17T03:03:15.627Z,41.08
2022-12-17T03:06:01.342Z,43.45
2022-12-17T03:08:46.766Z,42.45
2022-12-17T03:11:32.223Z,43.58
2022-12-17T03:14:17.871Z,49.05
2022-12-17T03:17:03.525Z,44.88
2022-12-17T03:19:51.597Z,40.55
2022-12-17T03:22:37.330Z,43.13
2022-12-17T03:25:25.594Z,38.22
2022-12-17T03:28:11.142Z,44.20
2022-12-17T03:30:56.979Z,51.85
2022-12-17T03:33:42.334Z,38.92
2022-12-17T03:36:28.167Z,44.05
2022-12-17T03:39:13.775Z,42.53
2022-12-17T03:41:59.604Z,43.00
2022-12-17T03:44:49.620Z,45.47
2022-12-17T03:47:35.354Z,41.45
2022-12-17T03:50:22.125Z,37.03
2022-12-17T03:53:16.008Z,47.28
2022-12-17T03:56:01.453Z,35.05
2022-12-17T03:58:50.502Z,37.78
2022-12-17T04:01:36.066Z,39.05
2022-12-17T04:04:21.696Z,41.05
2022-12-17T04:07:09.739Z,43.30
2022-12-17T04:10:08.321Z,40.15
2022-12-17T04:12:57.159Z,40.33
2022-12-17T04:15:52.204Z,40.10
2022-12-17T04:18:37.807Z,40.15
2022-12-17T04:21:24.423Z,41.83
2022-12-17T04:24:09.876Z,43.60
2022-12-17T04:27:01.454Z,44.80
2022-12-17T04:29:46.910Z,41.25
2022-12-17T04:32:35.875Z,41.65
2022-12-17T04:35:21.591Z,44.00
2022-12-17T04:38:14.695Z,42.38
2022-12-17T04:41:01.315Z,42.25
2022-12-17T04:43:46.723Z,40.72
2022-12-17T04:46:34.871Z,46.65
2022-12-17T04:49:20.314Z,50.60
2022-12-17T04:52:08.299Z,45.40
2022-12-17T04:54:53.946Z,43.00
2022-12-17T04:57:41.843Z,35.88
2022-12-17T05:00:27.892Z,42.03
2022-12-17T05:03:13.689Z,43.00
2022-12-17T05:06:00.292Z,43.83
2022-12-17T05:08:45.600Z,47.80
2022-12-17T05:11:31.259Z,54.33
2022-12-17T05:14:17.936Z,46.97
2022-12-17T05:17:04.504Z,55.58
2022-12-17T05:19:50.104Z,45.50
2022-12-17T05:22:35.574Z,48.15
2022-12-17T05:25:21.369Z,46.15
2022-12-17T05:28:06.895Z,45.45
2022-12-17T05:30:52.560Z,45.53
2022-12-17T05:33:38.496Z,44.35
2022-12-17T05:36:24.313Z,39.80
2022-12-17T05:39:09.746Z,53.47
2022-12-17T05:41:55.116Z,46.78
2022-12-17T05:44:43.029Z,50.58
2022-12-17T05:47:28.642Z,51.00
2022-12-17T05:50:14.362Z,52.22
2022-12-17T05:52:59.920Z,50.22
2022-12-17T05:55:45.489Z,49.72
2022-12-17T05:58:30.875Z,51.47
2022-12-17T06:01:19.017Z,57.95
2022-12-17T06:04:04.540Z,50.67
2022-12-17T06:06:51.021Z,53.72
2022-12-17T06:09:36.802Z,62.25
2022-12-17T06:12:22.245Z,55.10
2022-12-17T06:15:07.890Z,57.03
2022-12-17T06:17:53.267Z,53.08
2022-12-17T06:20:38.792Z,57.25
2022-12-17T06:23:34.321Z,62.78
2022-12-17T06:26:23.431Z,58.13
2022-12-17T06:29:11.324Z,53.17
2022-12-17T06:31:57.132Z,54.15
2022-12-17T06:34:42.604Z,54.80
2022-12-17T06:37:27.999Z,57.78
2022-12-17T06:40:19.461Z,56.47
2022-12-17T06:43:13.638Z,64.03
2022-12-17T06:45:59.036Z,55.13
2022-12-17T06:48:44.745Z,78.15
2022-12-17T06:51:30.500Z,71.70
2022-12-17T06:54:16.130Z,72.22
2022-12-17T06:57:01.679Z,81.25
2022-12-17T06:59:47.238Z,78.47
2022-12-17T07:02:46.703Z,72.18
2022-12-17T07:05:42.983Z,77.07
2022-12-17T07:08:28.742Z,77.82
2022-12-17T07:11:14.023Z,79.95
2022-12-17T07:13:59.649Z,80.75
2022-12-17T07:16:45.307Z,72.30
2022-12-17T07:19:30.806Z,76.75
2022-12-17T07:22:16.586Z,74.25
2022-12-17T07:25:01.995Z,63.78
2022-12-17T07:27:47.374Z,74.50
2022-12-17T07:30:33.193Z,74.38
2022-12-17T07:33:23.678Z,66.35
2022-12-17T07:36:10.995Z,62.55
2022-12-17T07:38:56.502Z,70.72
2022-12-17T07:41:41.822Z,70.60
2022-12-17T07:44:27.325Z,71.60
2022-12-17T07:47:29.569Z,68.70
2022-12-17T07:50:14.753Z,69.28
2022-12-17T07:53:00.351Z,59.15
2022-12-17T07:55:46.057Z,68.28
2022-12-17T07:58:31.783Z,69.85
2022-12-17T08:01:20.482Z,69.70
2022-12-17T08:04:05.899Z,69.90
2022-12-17T08:06:55.119Z,67.53
2022-12-17T08:09:43.929Z,57.55
2022-12-17T08:12:29.600Z,72.47
2022-12-17T08:15:15.193Z,65.22
2022-12-17T08:18:07.845Z,84.78
2022-12-17T08:20:54.553Z,72.82
2022-12-17T08:23:41.004Z,76.78
2022-12-17T08:26:26.503Z,80.20
2022-12-17T08:29:12.172Z,71.90
2022-12-17T08:31:57.776Z,93.97
2022-12-17T08:34:43.428Z,72.78
2022-12-17T08:37:36.360Z,75.57
2022-12-17T08:40:31.824Z,69.95
2022-12-17T08:43:17.419Z,64.75
2022-12-17T08:46:07.081Z,80.90
2022-12-17T08:48:54.408Z,78.40
2022-12-17T08:51:40.975Z,81.25
2022-12-17T08:54:26.549Z,71.38
2022-12-17T08:57:31.524Z,65.85
2022-12-17T09:00:18.073Z,68.63
2022-12-17T09:03:04.710Z,63.75
2022-12-17T09:06:00.446Z,78.40
2022-12-17T09:08:52.435Z,70.18
2022-12-17T09:11:39.069Z,67.13
2022-12-17T09:14:29.881Z,69.13
2022-12-17T09:17:20.849Z,82.75
2022-12-17T09:20:19.141Z,74.35
2022-12-17T09:23:07.350Z,70.55
2022-12-17T09:26:00.109Z,71.85
2022-12-17T09:28:48.853Z,75.45
2022-12-17T09:31:40.788Z,76.07
2022-12-17T09:34:26.314Z,65.70
2022-12-17T09:37:24.737Z,67.70
2022-12-17T09:40:12.953Z,67.60
2022-12-17T09:43:54.881Z,63.30
2022-12-17T09:46:29.972Z,71.07
2022-12-17T09:49:44.830Z,74.90
2022-12-17T09:52:43.931Z,64.93
2022-12-17T09:55:47.932Z,82.10
2022-12-17T09:58:44.033Z,74.80
2022-12-17T10:01:38.529Z,83.75
2022-12-17T10:04:26.526Z,83.13
2022-12-17T10:07:35.530Z,75.82
2022-12-17T10:11:34.565Z,90.10
2022-12-17T10:13:53.381Z,71.97
2022-12-17T10:16:44.942Z,80.32
2022-12-17T10:19:54.377Z,84.60
2022-12-17T10:22:39.936Z,88.82
2022-12-17T10:25:36.047Z,89.75
2022-12-17T10:28:25.364Z,90.35
2022-12-17T10:31:10.979Z,96.22
2022-12-17T10:33:57.406Z,94.72
2022-12-17T10:36:43.193Z,89.75
2022-12-17T10:39:37.243Z,94.63
2022-12-17T10:42:22.955Z,74.78
2022-12-17T10:45:08.321Z,86.18
2022-12-17T10:47:54.020Z,81.70
2022-12-17T10:50:42.060Z,73.70
2022-12-17T10:53:40.703Z,73.93
2022-12-17T10:56:26.153Z,75.45
2022-12-17T10:59:12.306Z,76.40
2022-12-17T11:02:00.776Z,68.75
2022-12-17T11:04:47.995Z,87.57
2022-12-17T11:07:36.536Z,87.20
2022-12-17T11:10:22.652Z,72.68
2022-12-17T11:13:10.658Z,68.38
2022-12-17T11:16:04.299Z,72.30
2022-12-17T11:18:55.934Z,78.35
2022-12-17T11:22:12.200Z,72.40
2022-12-17T11:25:22.263Z,75.80
2022-12-17T11:28:17.367Z,81.93
2022-12-17T11:31:07.819Z,70.75
2022-12-17T11:34:09.971Z,66.88
2022-12-17T11:37:04.003Z,86.65
2022-12-17T11:40:17.741Z,79.13
2022-12-17T11:43:09.628Z,74.13
2022-12-17T11:46:16.373Z,77.75
2022-12-17T11:49:04.708Z,73.68
2022-12-17T11:52:32.346Z,83.15
2022-12-17T11:55:30.166Z,83.78
2022-12-17T11:58:19.892Z,93.25
2022-12-17T12:01:20.761Z,86.30
2022-12-17T12:04:13.852Z,79.90
2022-12-17T12:07:18.701Z,80.95
2022-12-17T12:10:07.006Z,83.88
2022-12-17T12:13:02.523Z,73.45
2022-12-17T12:16:07.674Z,78.68
2022-12-17T12:19:05.383Z,89.63
2022-12-17T12:22:10.265Z,76.45
2022-12-17T12:25:09.666Z,82.00
2022-12-17T12:28:06.749Z,91.30
2022-12-17T12:31:00.673Z,86.07
2022-12-17T12:34:14.120Z,88.00
2022-12-17T12:36:59.455Z,102.22
2022-12-17T12:39:53.207Z,102.57
2022-12-17T12:42:44.025Z,93.93
2022-12-17T12:45:48.232Z,99.95
2022-12-17T12:48:40.052Z,88.85
2022-12-17T12:51:42.899Z,80.07
2022-12-17T12:54:40.731Z,69.80
2022-12-17T12:58:11.104Z,72.20
2022-12-17T13:00:58.280Z,80.90
2022-12-17T13:03:45.763Z,80.60
2022-12-17T13:06:14.069Z,70.68
2022-12-17T13:08:41.280Z,78.88
2022-12-17T13:11:28.748Z,70.80
2022-12-17T13:13:57.685Z,59.63
2022-12-17T13:16:48.806Z,70.63
2022-12-17T13:19:31.385Z,64.45
2022-12-17T13:22:21.664Z,75.15
2022-12-17T13:24:52.509Z,65.88
2022-12-17T13:27:34.122Z,73.38
2022-12-17T13:30:19.030Z,75.63
2022-12-17T13:33:16.285Z,60.47
2022-12-17T13:36:09.306Z,63.40
2022-12-17T13:38:39.383Z,67.20
2022-12-17T13:41:10.837Z,61.25
2022-12-17T13:43:54.176Z,69.35
2022-12-17T13:46:47.278Z,106.03
2022-12-17T13:49:18.485Z,76.80
2022-12-17T13:51:45.790Z,81.25
2022-12-17T13:54:16.314Z,64.15
2022-12-17T13:56:43.288Z,69.03
2022-12-17T13:59:22.210Z,52.83
2022-12-17T14:01:51.084Z,50.90
2022-12-17T14:04:22.097Z,43.25
2022-12-17T14:06:49.083Z,52.53
2022-12-17T14:12:38.524Z,74.85
2022-12-17T14:15:27.207Z,60.92
2022-12-17T14:17:59.048Z,56.42
2022-12-17T14:20:41.403Z,54.35
2022-12-17T14:23:30.470Z,59.97
2022-12-17T14:26:01.065Z,80.85
2022-12-17T14:28:38.092Z,49.10
2022-12-17T14:31:27.483Z,48.30
2022-12-17T14:34:02.294Z,52.92
2022-12-17T14:36:29.400Z,54.25
2022-12-17T14:39:03.690Z,58.28
2022-12-17T14:41:54.552Z,45.83
2022-12-17T14:44:24.123Z,42.83
2022-12-17T14:46:51.950Z,40.55
2022-12-17T14:49:20.305Z,38.42
2022-12-17T14:51:47.345Z,38.05
2022-12-17T14:54:14.343Z,44.92
2022-12-17T14:56:41.803Z,38.03
2022-12-17T14:59:24.736Z,40.63
2022-12-17T15:01:56.451Z,41.38
2022-12-17T15:04:23.732Z,42.65
2022-12-17T15:06:50.769Z,46.03
2022-12-17T15:09:17.685Z,44.38
2022-12-17T15:11:44.560Z,48.95
2022-12-17T15:14:11.365Z,43.97
2022-12-17T15:16:38.338Z,43.10
2022-12-17T15:19:05.265Z,44.13
2022-12-17T15:21:33.641Z,39.42
2022-12-17T15:24:00.559Z,45.45
2022-12-17T15:26:27.469Z,39.30
2022-12-17T15:28:54.770Z,35.90
2022-12-17T15:31:25.007Z,58.00
2022-12-17T15:33:53.700Z,35.42
2022-12-17T15:36:20.558Z,36.95
2022-12-17T15:38:47.707Z,34.17
2022-12-17T15:41:33.837Z,37.67
2022-12-17T15:44:00.803Z,38.05
2022-12-17T15:46:30.043Z,33.42
2022-12-17T15:48:57.200Z,40.10
2022-12-17T15:51:24.117Z,43.00
2022-12-17T15:53:51.107Z,41.63
2022-12-17T15:56:23.410Z,50.75
2022-12-17T15:58:50.473Z,41.40
2022-12-17T16:01:17.781Z,39.55
2022-12-17T16:03:44.865Z,42.90
2022-12-17T16:06:11.921Z,34.55
2022-12-17T16:08:39.633Z,40.70
2022-12-17T16:11:13.999Z,44.70
2022-12-17T16:13:41.044Z,43.38
2022-12-17T16:16:08.987Z,39.03
2022-12-17T16:18:39.223Z,45.40
2022-12-17T16:21:10.104Z,39.38
2022-12-17T16:23:37.149Z,39.53
2022-12-17T16:26:08.057Z,45.25
2022-12-17T16:28:35.798Z,44.53
2022-12-17T16:31:08.106Z,43.35
2022-12-17T16:33:37.008Z,44.55
2022-12-17T16:36:04.652Z,51.67
2022-12-17T16:38:31.866Z,52.35
2022-12-17T16:41:01.312Z,49.60
2022-12-17T16:43:30.487Z,43.40
2022-12-17T16:45:57.652Z,49.58
2022-12-17T16:48:24.739Z,44.13
2022-12-17T16:50:51.708Z,42.83
2022-12-17T16:53:21.427Z,47.85
2022-12-17T16:55:49.648Z,46.38
2022-12-17T16:58:17.292Z,48.53
2022-12-17T17:00:45.323Z,48.42
2022-12-17T17:03:12.560Z,48.13
2022-12-17T17:05:39.976Z,51.20
2022-12-17T17:08:07.062Z,48.60
2022-12-17T17:10:35.645Z,51.15
2022-12-17T17:13:02.753Z,53.50
2022-12-17T17:15:29.621Z,53.83
2022-12-17T17:18:01.954Z,50.35
2022-12-17T17:20:32.613Z,54.85
2022-12-17T17:22:59.920Z,61.50
2022-12-17T17:25:38.833Z,84.45
2022-12-17T17:28:14.152Z,79.22
2022-12-17T17:30:41.081Z,86.95
2022-12-17T17:33:07.942Z,85.70
2022-12-17T17:35:34.940Z,76.75
2022-12-17T17:38:01.803Z,73.30
2022-12-17T17:40:28.747Z,69.03
2022-12-17T17:42:55.644Z,75.85
2022-12-17T17:45:22.589Z,64.50
2022-12-17T17:47:49.444Z,65.18
2022-12-17T17:50:16.500Z,63.63
2022-12-17T17:52:43.379Z,60.10
2022-12-17T17:55:10.291Z,63.22
2022-12-17T17:57:37.179Z,67.10
2022-12-17T18:00:04.594Z,56.75
2022-12-17T18:02:32.409Z,52.33
2022-12-17T18:04:59.461Z,55.20
2022-12-17T18:07:27.160Z,54.33
2022-12-17T18:09:54.963Z,53.10
2022-12-17T18:12:40.369Z,58.17
2022-12-17T18:15:17.716Z,58.50
2022-12-17T18:17:50.211Z,46.03
2022-12-17T18:20:17.226Z,44.75
2022-12-17T18:22:46.354Z,45.10
2022-12-17T18:25:14.451Z,55.00
2022-12-17T18:27:41.376Z,52.78
2022-12-17T18:30:08.961Z,48.13
2022-12-17T18:32:36.079Z,51.35
2022-12-17T18:35:02.965Z,43.70
2022-12-17T18:37:29.851Z,49.45
2022-12-17T18:39:56.797Z,49.22
2022-12-17T18:42:42.170Z,49.33
2022-12-17T18:45:09.401Z,37.95
2022-12-17T18:47:36.252Z,48.25
2022-12-17T18:50:03.256Z,41.13
2022-12-17T18:52:30.148Z,61.30
2022-12-17T18:54:57.107Z,45.90
2022-12-17T18:57:24.140Z,44.22
2022-12-17T18:59:51.020Z,47.20
2022-12-17T19:02:18.137Z,40.95
2022-12-17T19:04:45.108Z,39.25
2022-12-17T19:07:12.000Z,45.53
2022-12-17T19:09:40.528Z,35.33
2022-12-17T19:12:08.365Z,41.40
2022-12-17T19:14:35.523Z,41.80
2022-12-17T19:17:02.616Z,38.15
2022-12-17T19:19:29.621Z,38.00
2022-12-17T19:21:56.582Z,41.38
2022-12-17T19:24:23.642Z,40.20
2022-12-17T19:26:50.722Z,41.50
2022-12-17T19:29:17.990Z,40.83
2022-12-17T19:31:45.903Z,41.75
2022-12-17T19:34:14.056Z,36.83
2022-12-17T19:36:41.013Z,43.88
2022-12-17T19:39:08.884Z,39.75
2022-12-17T19:41:35.757Z,35.00
2022-12-17T19:44:04.567Z,45.22
2022-12-17T19:46:32.060Z,38.60
2022-12-17T19:48:59.023Z,44.13
2022-12-17T19:51:28.343Z,35.85
2022-12-17T19:53:55.350Z,46.22
2022-12-17T19:56:26.558Z,43.33
2022-12-17T19:58:55.976Z,37.53
2022-12-17T20:01:28.104Z,45.17
2022-12-17T20:03:55.257Z,44.13
2022-12-17T20:06:24.116Z,52.80
2022-12-17T20:08:51.013Z,47.42
2022-12-17T20:11:36.227Z,47.67
2022-12-17T20:14:09.400Z,51.50
2022-12-17T20:16:38.246Z,50.22
2022-12-17T20:19:08.229Z,48.28
2022-12-17T20:21:35.130Z,48.88
2022-12-17T20:24:02.183Z,48.17
2022-12-17T20:26:29.038Z,38.70
2022-12-17T20:28:56.036Z,42.70
2022-12-17T20:31:23.057Z,44.80
2022-12-17T20:33:50.004Z,40.65
2022-12-17T20:36:18.753Z,34.75
2022-12-17T20:38:45.749Z,35.53
2022-12-17T20:41:19.886Z,37.35
2022-12-17T20:43:47.071Z,39.05
2022-12-17T20:46:14.231Z,47.67
2022-12-17T20:48:42.117Z,47.35
2022-12-17T20:51:13.281Z,46.45
2022-12-17T20:53:40.327Z,49.83
2022-12-17T20:56:09.174Z,51.40
2022-12-17T20:58:36.652Z,50.60
2022-12-17T21:01:09.269Z,50.58
2022-12-17T21:03:36.277Z,69.63
2022-12-17T21:06:11.093Z,69.53
2022-12-17T21:08:39.268Z,82.78
2022-12-17T21:11:08.509Z,112.78
2022-12-17T21:13:35.550Z,97.97
2022-12-17T21:16:07.132Z,98.28
2022-12-17T21:18:34.174Z,106.82
2022-12-17T21:21:09.041Z,98.47
2022-12-17T21:23:36.218Z,97.60
2022-12-17T21:26:13.970Z,109.10
2022-12-17T21:28:42.458Z,100.00
2022-12-17T21:31:31.575Z,95.53
2022-12-17T21:34:00.639Z,95.28
2022-12-17T21:36:28.749Z,91.63
2022-12-17T21:38:55.853Z,88.57
2022-12-17T21:41:26.805Z,91.68
2022-12-17T21:43:58.811Z,91.53
2022-12-17T21:46:29.149Z,88.30
2022-12-17T21:48:57.208Z,97.80
2022-12-17T21:51:24.166Z,82.38
2022-12-17T21:53:59.020Z,99.72
2022-12-17T21:56:26.308Z,77.95
2022-12-17T21:59:00.168Z,69.32
2022-12-17T22:03:56.777Z,71.75
2022-12-17T22:06:25.960Z,62.75
2022-12-17T22:09:00.176Z,63.22
2022-12-17T22:11:36.507Z,52.50
2022-12-17T22:14:08.618Z,58.97
2022-12-17T22:16:42.484Z,49.50
2022-12-17T22:19:10.525Z,60.00
2022-12-17T22:21:39.283Z,59.17
2022-12-17T22:24:06.689Z,72.10
2022-12-17T22:26:36.348Z,68.30
2022-12-17T22:29:03.487Z,61.80
2022-12-17T22:32:05.706Z,65.40
2022-12-17T22:35:31.277Z,57.35
2022-12-17T22:42:17.664Z,72.78
2022-12-17T22:44:17.219Z,60.92
2022-12-17T22:44:49.041Z,88.05
2022-12-17T22:46:03.991Z,67.63
2022-12-17T22:48:31.878Z,66.13
2022-12-17T22:51:05.833Z,77.15
2022-12-17T22:53:37.368Z,65.88
2022-12-17T22:56:18.521Z,74.18
2022-12-17T22:58:53.399Z,73.57
2022-12-17T23:01:23.178Z,77.85
2022-12-17T23:03:54.125Z,67.30
2022-12-17T23:06:21.270Z,61.42
2022-12-17T23:08:48.132Z,69.05
2022-12-17T23:11:17.427Z,76.65
2022-12-17T23:13:44.320Z,70.72
2022-12-17T23:16:13.350Z,79.72
2022-12-17T23:18:41.256Z,66.45
2022-12-17T23:21:10.958Z,76.63
2022-12-17T23:23:38.437Z,74.03
2022-12-17T23:26:14.205Z,72.25
2022-12-17T23:28:41.373Z,67.32
2022-12-17T23:31:10.137Z,76.97
2022-12-17T23:33:37.625Z,62.97
2022-12-17T23:36:06.595Z,85.65
2022-12-17T23:38:33.785Z,73.35
2022-12-17T23:41:10.853Z,72.45
2022-12-17T23:43:38.313Z,72.30
2022-12-17T23:46:05.586Z,68.50
2022-12-17T23:48:34.028Z,71.30
2022-12-17T23:51:01.023Z,71.75
2022-12-17T23:53:28.750Z,66.95
2022-12-17T23:55:55.716Z,64.78
2022-12-17T23:58:22.822Z,67.63
